Time;durP1;ratioP1;P1;durP2;ratioP2;P2;SDS_P1;SDS_P2;PMS_P1;PMS_P2;Temp;Humidity;BMP_temperature;BMP_pressure;BME280_temperature;BME280_humidity;BME280_pressure;Samples;Min_cycle;Max_cycle;Signal;HPM_P1;HPM_P2
2021/09/12 00:02:16;;;;;;;31.92;28.45;;;15.60;99.40;;;;;;5054320;28;20024;-76
2021/09/12 00:04:42;;;;;;;35.40;29.25;;;15.50;99.50;;;;;;5053860;28;20112;-77
2021/09/12 00:07:08;;;;;;;33.40;29.15;;;15.50;99.60;;;;;;5053947;28;20478;-78
2021/09/12 00:09:34;;;;;;;38.17;30.52;;;15.50;99.70;;;;;;5054298;28;20026;-79
2021/09/12 00:12:01;;;;;;;39.97;32.53;;;15.40;99.70;;;;;;5053995;28;20104;-78
2021/09/12 00:14:27;;;;;;;37.38;30.50;;;15.40;99.90;;;;;;5054123;28;20386;-78
2021/09/12 00:16:52;;;;;;;38.08;31.00;;;15.40;99.90;;;;;;5052843;28;20033;-77
2021/09/12 00:19:18;;;;;;;36.17;30.80;;;15.40;99.90;;;;;;5063592;28;20086;-77
2021/09/12 00:21:45;;;;;;;37.53;33.47;;;15.50;99.90;;;;;;5073805;28;20024;-78
2021/09/12 00:24:11;;;;;;;39.38;29.92;;;15.40;99.90;;;;;;5072521;28;20074;-77
2021/09/12 00:26:36;;;;;;;33.10;29.48;;;15.40;99.90;;;;;;5066695;28;20832;-77
2021/09/12 00:29:03;;;;;;;35.25;30.05;;;15.40;99.90;;;;;;5073543;28;20095;-78
2021/09/12 00:31:29;;;;;;;34.55;29.58;;;15.30;99.90;;;;;;5073083;28;20024;-77
2021/09/12 00:33:55;;;;;;;36.95;31.73;;;15.40;99.90;;;;;;5071286;28;20035;-78
2021/09/12 00:36:21;;;;;;;37.42;32.85;;;15.30;99.90;;;;;;5071799;28;20052;-78
2021/09/12 00:38:46;;;;;;;35.05;31.27;;;15.30;99.90;;;;;;5072253;28;20182;-76
2021/09/12 00:41:12;;;;;;;34.00;30.27;;;15.30;99.90;;;;;;5070667;28;20120;-78
2021/09/12 00:43:38;;;;;;;36.53;32.53;;;15.20;99.90;;;;;;5071204;28;20500;-76
2021/09/12 00:46:07;;;;;;;41.50;34.60;;;15.20;99.90;;;;;;5064594;28;20074;-77
2021/09/12 00:48:36;;;;;;;36.55;32.40;;;15.10;99.90;;;;;;5049914;28;20394;-77
2021/09/12 00:51:04;;;;;;;37.53;31.60;;;15.10;99.90;;;;;;5049801;28;20025;-78
2021/09/12 00:53:31;;;;;;;37.55;33.15;;;15.10;99.90;;;;;;5070608;28;20021;-76
2021/09/12 00:56:00;;;;;;;38.45;31.85;;;15.10;99.90;;;;;;5072874;28;20092;-79
2021/09/12 00:58:28;;;;;;;40.13;33.28;;;15.00;99.90;;;;;;5072439;28;20389;-79
2021/09/12 01:00:54;;;;;;;34.78;30.17;;;15.00;99.90;;;;;;5070262;28;20107;-77
2021/09/12 01:03:20;;;;;;;35.53;30.65;;;15.00;99.90;;;;;;5071674;28;20028;-76
2021/09/12 01:05:46;;;;;;;35.88;32.13;;;15.00;99.90;;;;;;5069912;28;20029;-76
2021/09/12 01:08:12;;;;;;;44.00;32.83;;;15.00;99.90;;;;;;5069989;28;20489;-77
2021/09/12 01:10:40;;;;;;;38.95;31.90;;;15.00;99.90;;;;;;5068435;28;20047;-77
2021/09/12 01:13:06;;;;;;;37.08;31.95;;;15.00;99.90;;;;;;5067141;28;20016;-76
2021/09/12 01:15:33;;;;;;;42.05;32.30;;;15.00;99.90;;;;;;5069269;28;20157;-76
2021/09/12 01:17:59;;;;;;;36.97;32.00;;;15.00;99.90;;;;;;5064182;28;20173;-77
2021/09/12 01:20:25;;;;;;;40.15;32.88;;;15.00;99.90;;;;;;5060894;28;20035;-77
2021/09/12 01:22:51;;;;;;;36.63;32.67;;;15.00;99.90;;;;;;5063216;28;20028;-77
2021/09/12 01:25:17;;;;;;;41.58;33.15;;;15.00;99.90;;;;;;5047159;28;20017;-77
2021/09/12 01:27:43;;;;;;;37.67;31.67;;;14.90;99.90;;;;;;5064633;28;20037;-76
2021/09/12 01:30:10;;;;;;;37.65;32.92;;;14.90;99.90;;;;;;5071351;28;20028;-78
2021/09/12 01:32:37;;;;;;;41.08;32.47;;;14.90;99.90;;;;;;5071423;28;20032;-77
2021/09/12 01:35:04;;;;;;;38.97;33.50;;;14.90;99.90;;;;;;5068979;28;20390;-77
2021/09/12 01:37:30;;;;;;;36.08;31.90;;;14.90;99.90;;;;;;5070041;28;20382;-77
2021/09/12 01:39:57;;;;;;;42.35;33.85;;;14.90;99.90;;;;;;5058833;28;20475;-76
2021/09/12 01:42:23;;;;;;;39.42;34.00;;;14.90;99.90;;;;;;5068877;28;20071;-77
2021/09/12 01:44:53;;;;;;;41.78;34.45;;;14.80;99.90;;;;;;5067787;28;20024;-77
2021/09/12 01:47:19;;;;;;;40.83;33.95;;;14.80;99.90;;;;;;5051026;28;20037;-77
2021/09/12 01:49:45;;;;;;;38.05;33.75;;;14.70;99.90;;;;;;5062167;28;20134;-77
2021/09/12 01:52:13;;;;;;;39.83;32.95;;;14.70;99.90;;;;;;5063958;28;20378;-76
2021/09/12 01:54:39;;;;;;;40.70;35.63;;;14.70;99.90;;;;;;5067404;28;20111;-76
2021/09/12 01:57:06;;;;;;;42.35;35.95;;;14.60;99.90;;;;;;5061151;28;20031;-77
2021/09/12 01:59:33;;;;;;;40.22;34.80;;;14.60;99.90;;;;;;5066736;28;20017;-76
2021/09/12 02:01:59;;;;;;;45.65;36.70;;;14.50;99.90;;;;;;5060495;28;20103;-76
2021/09/12 02:04:25;;;;;;;41.65;36.20;;;14.60;99.90;;;;;;5064343;28;20099;-76
2021/09/12 02:06:51;;;;;;;44.97;37.15;;;14.50;99.90;;;;;;5060423;28;20032;-75
2021/09/12 02:09:17;;;;;;;46.50;36.88;;;14.50;99.90;;;;;;5061209;28;20039;-76
2021/09/12 02:11:43;;;;;;;41.25;35.08;;;14.50;99.90;;;;;;5061270;28;20024;-75
2021/09/12 02:14:08;;;;;;;46.05;36.15;;;14.50;99.90;;;;;;5059449;28;20021;-76
2021/09/12 02:16:34;;;;;;;45.40;35.42;;;14.40;99.90;;;;;;5063656;28;20020;-77
2021/09/12 02:19:00;;;;;;;46.53;36.90;;;14.40;99.90;;;;;;5056561;28;20037;-76
2021/09/12 02:21:27;;;;;;;49.17;37.80;;;14.50;99.90;;;;;;5060851;28;20202;-76
2021/09/12 02:23:53;;;;;;;42.00;34.70;;;14.50;99.90;;;;;;5049660;28;20470;-75
2021/09/12 02:26:18;;;;;;;45.45;35.10;;;14.50;99.90;;;;;;5056535;28;20040;-76
2021/09/12 02:28:44;;;;;;;45.38;34.58;;;14.50;99.90;;;;;;5052251;28;20017;-76
2021/09/12 02:31:10;;;;;;;41.65;34.60;;;14.40;99.90;;;;;;5051962;28;20021;-76
2021/09/12 02:33:36;;;;;;;41.92;37.35;;;14.40;99.90;;;;;;5033949;28;20021;-75
2021/09/12 02:36:02;;;;;;;45.97;37.42;;;14.40;99.90;;;;;;5051894;28;20021;-76
2021/09/12 02:38:29;;;;;;;44.85;37.65;;;14.30;99.90;;;;;;5051587;28;20021;-76
2021/09/12 02:40:58;;;;;;;44.55;36.22;;;14.30;99.90;;;;;;5051862;28;20430;-75
2021/09/12 02:43:25;;;;;;;43.47;36.10;;;14.30;99.90;;;;;;5051808;28;20017;-75
2021/09/12 02:45:50;;;;;;;45.30;37.40;;;14.20;99.90;;;;;;5051684;28;20111;-77
2021/09/12 02:48:16;;;;;;;41.33;36.28;;;14.20;99.90;;;;;;5051826;28;20104;-76
2021/09/12 02:50:42;;;;;;;44.35;36.78;;;14.20;99.90;;;;;;5051476;28;20070;-77
2021/09/12 02:53:08;;;;;;;46.85;36.90;;;14.20;99.90;;;;;;5051694;28;20021;-77
2021/09/12 02:55:33;;;;;;;43.28;36.80;;;14.20;99.90;;;;;;5051645;28;20075;-77
2021/09/12 02:57:59;;;;;;;43.33;37.03;;;14.20;99.90;;;;;;5052632;28;20447;-76
2021/09/12 03:00:25;;;;;;;45.78;35.60;;;14.20;99.90;;;;;;5053131;28;20025;-77
2021/09/12 03:02:51;;;;;;;45.75;37.78;;;14.20;99.90;;;;;;5051752;28;20032;-76
2021/09/12 03:05:17;;;;;;;45.63;38.15;;;14.20;99.90;;;;;;5051762;28;20025;-75
2021/09/12 03:07:42;;;;;;;41.45;34.63;;;14.20;99.90;;;;;;5051382;28;20032;-77
2021/09/12 03:10:09;;;;;;;41.15;34.65;;;14.30;99.90;;;;;;5051599;28;20021;-77
2021/09/12 03:12:34;;;;;;;43.13;33.90;;;14.30;99.90;;;;;;5051681;28;20412;-76
2021/09/12 03:15:00;;;;;;;48.65;35.28;;;14.30;99.90;;;;;;5051409;28;20154;-78
2021/09/12 03:17:26;;;;;;;40.30;32.70;;;14.30;99.90;;;;;;5033948;28;20045;-77
2021/09/12 03:19:52;;;;;;;40.65;33.13;;;14.30;99.90;;;;;;5067077;28;20017;-78
2021/09/12 03:22:18;;;;;;;38.28;32.47;;;14.40;99.90;;;;;;5053731;28;20037;-76
2021/09/12 03:24:47;;;;;;;41.97;33.45;;;14.40;99.90;;;;;;5054954;28;20098;-77
2021/09/12 03:27:12;;;;;;;49.25;37.30;;;14.40;99.90;;;;;;5054612;28;20033;-77
2021/09/12 03:29:38;;;;;;;39.42;34.38;;;14.40;99.90;;;;;;5055175;28;20100;-77
2021/09/12 03:32:05;;;;;;;42.70;33.60;;;14.50;99.90;;;;;;5055417;28;20021;-76
2021/09/12 03:34:30;;;;;;;37.45;33.08;;;14.50;99.90;;;;;;5055117;28;20055;-77
2021/09/12 03:36:56;;;;;;;43.53;34.08;;;14.50;99.90;;;;;;5054906;28;20025;-77
2021/09/12 03:39:22;;;;;;;38.90;33.05;;;14.50;99.90;;;;;;5054939;28;20017;-76
2021/09/12 03:41:48;;;;;;;41.90;34.20;;;14.60;99.90;;;;;;5054775;28;20124;-77
2021/09/12 03:44:14;;;;;;;39.15;33.22;;;14.60;99.90;;;;;;5054920;28;20379;-76
2021/09/12 03:46:40;;;;;;;43.90;32.33;;;14.60;99.90;;;;;;5054598;28;20533;-76
2021/09/12 03:49:06;;;;;;;36.05;30.15;;;14.70;99.90;;;;;;5054866;28;20082;-76
2021/09/12 03:51:32;;;;;;;33.72;29.70;;;14.70;99.90;;;;;;5055144;28;20378;-76
2021/09/12 03:53:57;;;;;;;37.15;29.52;;;14.80;99.90;;;;;;5054637;28;20033;-77
2021/09/12 03:56:23;;;;;;;36.05;27.60;;;14.90;99.90;;;;;;5054655;28;20021;-77
2021/09/12 03:58:49;;;;;;;34.58;29.83;;;15.00;99.90;;;;;;5054410;28;20056;-77
2021/09/12 04:01:15;;;;;;;33.53;28.13;;;15.10;99.90;;;;;;5054678;28;20096;-78
2021/09/12 04:03:41;;;;;;;31.65;28.25;;;15.20;99.90;;;;;;5054409;28;20477;-76
2021/09/12 04:06:06;;;;;;;35.65;29.25;;;15.30;99.90;;;;;;5054067;28;20025;-77
2021/09/12 04:08:32;;;;;;;30.27;26.55;;;15.40;99.90;;;;;;5054473;28;20486;-76
2021/09/12 04:10:58;;;;;;;34.55;27.65;;;15.50;99.90;;;;;;5054600;28;20021;-76
2021/09/12 04:13:24;;;;;;;29.88;26.60;;;15.60;99.90;;;;;;5055082;28;20031;-76
2021/09/12 04:15:50;;;;;;;29.92;26.90;;;15.80;99.90;;;;;;5054524;28;20482;-77
2021/09/12 04:18:15;;;;;;;31.38;24.92;;;16.10;99.10;;;;;;5065409;28;20122;-76
2021/09/12 04:20:41;;;;;;;29.80;24.95;;;16.50;98.30;;;;;;5074617;28;20377;-77
2021/09/12 04:23:07;;;;;;;28.27;25.23;;;16.80;97.20;;;;;;5074388;28;20366;-76
2021/09/12 04:25:33;;;;;;;30.67;25.08;;;17.30;96.30;;;;;;5069730;28;20071;-77
2021/09/12 04:27:59;;;;;;;27.20;24.20;;;17.70;95.10;;;;;;5053268;28;20047;-77
2021/09/12 04:30:25;;;;;;;28.13;24.42;;;17.90;94.00;;;;;;5074726;28;20450;-78
2021/09/12 04:32:51;;;;;;;28.58;25.15;;;18.30;93.10;;;;;;5073774;28;20039;-76
2021/09/12 04:35:16;;;;;;;28.00;24.95;;;18.50;92.30;;;;;;5069596;28;20130;-75
2021/09/12 04:37:43;;;;;;;27.08;24.20;;;18.80;91.60;;;;;;5074027;28;20104;-75
2021/09/12 04:40:09;;;;;;;26.60;23.50;;;19.00;90.80;;;;;;5073653;28;20033;-76
2021/09/12 04:42:35;;;;;;;28.60;24.40;;;19.10;90.30;;;;;;5073782;28;20032;-76
2021/09/12 04:45:01;;;;;;;31.23;24.80;;;19.00;89.80;;;;;;5073974;28;20461;-77
2021/09/12 04:47:27;;;;;;;33.90;24.90;;;18.70;90.00;;;;;;5073430;28;20028;-76
2021/09/12 04:49:53;;;;;;;28.63;25.38;;;18.40;90.50;;;;;;5073495;28;20027;-76
2021/09/12 04:52:19;;;;;;;29.38;25.30;;;18.20;91.00;;;;;;5073360;28;20029;-76
2021/09/12 04:54:45;;;;;;;27.98;25.05;;;17.90;91.50;;;;;;5073297;28;20025;-77
2021/09/12 04:57:10;;;;;;;32.60;27.70;;;17.70;92.10;;;;;;5073253;28;20094;-76
2021/09/12 04:59:37;;;;;;;31.45;25.58;;;17.50;92.40;;;;;;5071972;28;20032;-77
2021/09/12 05:02:04;;;;;;;28.42;25.38;;;17.50;92.80;;;;;;5073426;28;20036;-76
2021/09/12 05:04:30;;;;;;;;;;;17.40;93.00;;;;;;5074047;28;20047;-78
2021/09/12 05:06:56;;;;;;;30.30;25.02;;;17.30;93.10;;;;;;5073198;28;19912;-79
2021/09/12 05:09:23;;;;;;;34.17;26.65;;;17.30;93.40;;;;;;5073073;28;20522;-79
2021/09/12 05:11:50;;;;;;;31.15;26.50;;;17.20;93.60;;;;;;5073150;28;20021;-77
2021/09/12 05:14:16;;;;;;;35.75;31.13;;;17.30;93.70;;;;;;5073057;28;20048;-76
2021/09/12 05:16:42;;;;;;;49.88;37.92;;;17.40;93.70;;;;;;5073101;28;20067;-77
2021/09/12 05:19:07;;;;;;;30.80;26.33;;;17.50;93.60;;;;;;5072718;28;20044;-77
2021/09/12 05:21:33;;;;;;;29.52;26.20;;;17.70;93.30;;;;;;5058921;28;20032;-77
2021/09/12 05:23:59;;;;;;;38.42;27.40;;;18.00;92.80;;;;;;5072865;28;20363;-76
2021/09/12 05:26:25;;;;;;;25.50;22.77;;;18.20;92.40;;;;;;5064740;28;20443;-77
2021/09/12 05:28:54;;;;;;;29.35;23.90;;;18.30;91.70;;;;;;5072885;28;20025;-77
2021/09/12 05:31:19;;;;;;;40.35;30.35;;;18.30;91.60;;;;;;5072779;28;20025;-76
2021/09/12 05:33:45;;;;;;;27.05;24.25;;;18.30;91.50;;;;;;5071374;28;20135;-78
2021/09/12 05:36:11;;;;;;;26.83;23.77;;;18.20;91.40;;;;;;5072556;28;20024;-78
2021/09/12 05:38:37;;;;;;;27.35;23.67;;;18.20;91.50;;;;;;5072611;28;20016;-77
2021/09/12 05:41:03;;;;;;;24.65;21.15;;;18.20;91.60;;;;;;5072683;28;20029;-77
2021/09/12 05:43:29;;;;;;;31.75;23.73;;;18.30;91.60;;;;;;5070877;28;20389;-78
2021/09/12 05:45:55;;;;;;;23.63;21.13;;;18.40;91.30;;;;;;5072062;28;20066;-77
2021/09/12 05:48:21;;;;;;;24.20;21.23;;;18.60;90.90;;;;;;5072592;28;20021;-78
2021/09/12 05:50:46;;;;;;;23.65;20.95;;;18.80;90.60;;;;;;5070949;28;20424;-77
2021/09/12 05:53:14;;;;;;;23.13;20.75;;;19.10;89.90;;;;;;5071837;28;20040;-77
2021/09/12 05:55:40;;;;;;;;;;;19.40;89.00;;;;;;5070957;28;20485;-78
2021/09/12 05:58:07;;;;;;;25.92;21.45;;;19.50;90.00;;;;;;5071738;28;19927;-77
2021/09/12 06:00:33;;;;;;;21.90;19.48;;;19.50;87.60;;;;;;5070357;28;20028;-77
2021/09/12 06:02:58;;;;;;;22.95;20.50;;;19.60;87.30;;;;;;5071768;28;20025;-77
2021/09/12 06:05:24;;;;;;;27.45;21.90;;;19.70;87.00;;;;;;5071443;28;20032;-77
2021/09/12 06:07:50;;;;;;;26.15;20.92;;;19.90;86.30;;;;;;5070429;28;20481;-76
2021/09/12 06:10:16;;;;;;;26.65;22.38;;;20.10;85.40;;;;;;5071222;28;20021;-77
2021/09/12 06:12:42;;;;;;;21.75;19.65;;;20.40;84.20;;;;;;5070284;28;20021;-76
2021/09/12 06:15:08;;;;;;;27.65;20.35;;;20.80;83.40;;;;;;5071175;28;20056;-76
2021/09/12 06:17:34;;;;;;;24.05;19.40;;;21.10;81.30;;;;;;5070039;28;20091;-78
2021/09/12 06:19:59;;;;;;;24.23;20.63;;;21.40;79.80;;;;;;5071405;28;20012;-77
2021/09/12 06:22:25;;;;;;;26.02;19.67;;;21.50;78.60;;;;;;5071225;28;20078;-77
2021/09/12 06:24:51;;;;;;;28.85;21.50;;;21.60;77.40;;;;;;5070374;28;20017;-78
2021/09/12 06:27:17;;;;;;;25.77;21.08;;;21.70;77.00;;;;;;5063995;28;20040;-77
2021/09/12 06:29:44;;;;;;;29.00;21.52;;;21.70;76.30;;;;;;5072190;28;20032;-77
2021/09/12 06:32:09;;;;;;;30.20;23.90;;;21.80;75.90;;;;;;5068045;28;20362;-77
2021/09/12 06:34:35;;;;;;;30.20;23.17;;;21.90;75.60;;;;;;5064109;28;20027;-78
2021/09/12 06:37:01;;;;;;;27.48;24.55;;;22.10;74.80;;;;;;5072720;28;20067;-77
2021/09/12 06:39:27;;;;;;;25.10;20.83;;;22.10;74.00;;;;;;5073007;28;20054;-76
2021/09/12 06:41:53;;;;;;;23.60;20.58;;;22.20;73.60;;;;;;5072726;28;20082;-77
2021/09/12 06:44:19;;;;;;;22.63;20.25;;;22.10;73.30;;;;;;5072558;28;20016;-80
2021/09/12 06:46:45;;;;;;;22.50;18.80;;;22.00;73.30;;;;;;5054712;28;20039;-77
2021/09/12 06:49:11;;;;;;;24.75;19.80;;;21.90;74.30;;;;;;5054099;28;20545;-77
2021/09/12 06:51:37;;;;;;;23.20;20.55;;;21.90;74.70;;;;;;5072354;28;20107;-78
2021/09/12 06:54:03;;;;;;;22.70;20.00;;;21.90;75.40;;;;;;5072165;28;20112;-78
2021/09/12 06:56:29;;;;;;;25.70;22.67;;;21.90;75.40;;;;;;5074933;28;20480;-78
2021/09/12 06:58:55;;;;;;;34.33;25.67;;;22.00;74.50;;;;;;5076231;28;20020;-79
2021/09/12 07:01:20;;;;;;;30.58;26.88;;;22.20;73.60;;;;;;5076585;28;20035;-78
2021/09/12 07:03:46;;;;;;;30.02;22.83;;;22.70;72.80;;;;;;5077166;28;20028;-80
2021/09/12 07:06:12;;;;;;;21.33;18.30;;;23.30;71.60;;;;;;5059571;28;20074;-79
2021/09/12 07:08:38;;;;;;;25.27;18.10;;;23.50;69.90;;;;;;5076392;28;20070;-80
2021/09/12 07:11:04;;;;;;;25.17;18.50;;;23.40;68.90;;;;;;5075910;28;20013;-78
2021/09/12 07:13:30;;;;;;;23.98;19.13;;;23.20;69.90;;;;;;5076026;28;20036;-80
2021/09/12 07:15:56;;;;;;;24.20;18.30;;;23.20;70.80;;;;;;5075395;28;20417;-82
2021/09/12 07:18:22;;;;;;;19.58;17.17;;;23.20;70.10;;;;;;5075652;28;20044;-79
2021/09/12 07:20:48;;;;;;;20.15;16.33;;;23.60;69.60;;;;;;5075526;28;20028;-79
2021/09/12 07:23:13;;;;;;;17.98;15.55;;;24.30;67.60;;;;;;5075274;28;20441;-79
2021/09/12 07:25:39;;;;;;;18.75;15.38;;;25.10;65.90;;;;;;5069698;28;20478;-78
2021/09/12 07:28:05;;;;;;;19.27;15.07;;;25.40;62.70;;;;;;5072561;28;20413;-78
2021/09/12 07:30:31;;;;;;;20.10;15.80;;;25.20;61.80;;;;;;5072996;28;20028;-78
2021/09/12 07:32:57;;;;;;;20.85;14.90;;;24.90;62.40;;;;;;5049743;28;20112;-76
2021/09/12 07:35:22;;;;;;;19.77;14.88;;;24.40;62.10;;;;;;5057386;28;20127;-77
2021/09/12 07:37:48;;;;;;;21.83;15.02;;;24.20;62.70;;;;;;5075353;28;20032;-79
2021/09/12 07:40:14;;;;;;;18.42;14.38;;;24.00;64.40;;;;;;5074966;28;20063;-80
2021/09/12 07:42:41;;;;;;;16.20;14.40;;;23.80;64.00;;;;;;5075301;28;20103;-77
2021/09/12 07:45:07;;;;;;;;;;;24.40;63.60;;;;;;5068800;28;20081;-78
2021/09/12 07:47:33;;;;;;;22.87;14.67;;;25.50;63.40;;;;;;5053023;28;19959;-77
2021/09/12 07:49:59;;;;;;;20.52;14.60;;;25.80;58.50;;;;;;5055960;28;20017;-78
2021/09/12 07:52:25;;;;;;;19.58;14.90;;;25.80;57.80;;;;;;5037848;28;20036;-78
2021/09/12 07:54:51;;;;;;;24.08;14.02;;;25.60;58.10;;;;;;5055742;28;20528;-76
2021/09/12 07:57:17;;;;;;;23.88;15.02;;;25.40;57.80;;;;;;5054594;28;20394;-77
2021/09/12 07:59:42;;;;;;;22.23;14.13;;;25.30;58.20;;;;;;5054834;28;20028;-78
2021/09/12 08:02:08;;;;;;;22.13;14.55;;;25.00;58.90;;;;;;5050225;28;20111;-77
2021/09/12 08:04:34;;;;;;;24.25;15.30;;;25.10;58.90;;;;;;5073657;28;20385;-76
2021/09/12 08:07:00;;;;;;;20.23;16.33;;;25.10;59.00;;;;;;5068663;28;20561;-78
2021/09/12 08:09:26;;;;;;;30.17;17.33;;;25.50;59.20;;;;;;5071423;28;20020;-78
2021/09/12 08:11:51;;;;;;;20.63;15.35;;;26.10;58.10;;;;;;5072472;28;20389;-78
2021/09/12 08:14:17;;;;;;;20.13;15.35;;;26.50;57.00;;;;;;5070494;28;20029;-79
2021/09/12 08:16:43;;;;;;;23.65;14.63;;;26.70;55.40;;;;;;5071879;28;20044;-78
2021/09/12 08:19:09;;;;;;;17.60;15.18;;;26.70;55.20;;;;;;5070429;28;20048;-78
2021/09/12 08:21:35;;;;;;;21.45;15.65;;;26.50;55.40;;;;;;5071901;28;20072;-77
2021/09/12 08:24:01;;;;;;;21.67;17.65;;;26.10;55.60;;;;;;5070059;28;20024;-77
2021/09/12 08:26:27;;;;;;;25.70;17.33;;;25.80;56.30;;;;;;5062458;28;20051;-77
2021/09/12 08:28:53;;;;;;;17.73;14.57;;;25.80;56.50;;;;;;5068491;28;20508;-78
2021/09/12 08:31:19;;;;;;;19.13;14.82;;;25.60;56.50;;;;;;5058948;28;20016;-78
2021/09/12 08:33:45;;;;;;;23.88;14.40;;;25.30;57.10;;;;;;5071824;28;20478;-78
2021/09/12 08:36:11;;;;;;;19.63;15.35;;;25.00;58.40;;;;;;5054207;28;20025;-77
2021/09/12 08:38:36;;;;;;;24.30;15.40;;;24.60;59.70;;;;;;5070265;28;20035;-76
2021/09/12 08:41:02;;;;;;;21.05;15.30;;;24.50;60.80;;;;;;5071709;28;20028;-79
2021/09/12 08:43:35;;;;;;;20.85;15.35;;;24.60;60.10;;;;;;5068745;28;20060;-81
2021/09/12 08:46:02;;;;;;;19.90;15.80;;;24.60;59.80;;;;;;5064869;28;20009;-78
2021/09/12 08:48:27;;;;;;;28.35;16.20;;;24.50;60.30;;;;;;5064315;28;20068;-77
2021/09/12 08:50:53;;;;;;;23.38;16.77;;;24.40;60.80;;;;;;5066052;28;20520;-77
2021/09/12 08:53:19;;;;;;;23.45;14.63;;;24.50;60.50;;;;;;5063260;28;20016;-77
2021/09/12 08:55:45;;;;;;;21.75;16.08;;;24.60;60.00;;;;;;5066455;28;20023;-77
2021/09/12 08:58:12;;;;;;;20.95;15.40;;;24.60;59.90;;;;;;5068386;28;20021;-77
2021/09/12 09:00:43;;;;;;;24.02;15.25;;;24.50;59.80;;;;;;5046232;28;20489;-77
2021/09/12 09:03:09;;;;;;;17.33;14.35;;;24.30;60.60;;;;;;5044060;28;20541;-77
2021/09/12 09:05:41;;;;;;;21.85;15.40;;;24.20;60.50;;;;;;5062833;28;20087;-80
2021/09/12 09:08:11;;;;;;;21.02;15.82;;;24.10;61.60;;;;;;5068435;28;20082;-77
2021/09/12 09:10:41;;;;;;;22.85;16.38;;;24.50;61.00;;;;;;5056202;28;20055;-78
2021/09/12 09:13:50;;;;;;;23.58;15.00;;;24.60;60.90;;;;;;5053336;28;20017;-79
2021/09/12 09:16:34;;;;;;;18.35;14.10;;;24.80;61.00;;;;;;5060836;28;20024;-78
2021/09/12 09:19:02;;;;;;;21.33;15.98;;;24.80;60.50;;;;;;5041683;28;20063;-79
2021/09/12 09:21:40;;;;;;;21.98;16.20;;;24.60;60.20;;;;;;5053239;28;20028;-80
2021/09/12 09:24:15;;;;;;;21.48;15.80;;;24.30;61.20;;;;;;5046297;28;20013;-79
2021/09/12 09:26:49;;;;;;;18.13;14.82;;;24.10;62.60;;;;;;5051432;28;20037;-80
2021/09/12 09:29:22;;;;;;;22.92;16.30;;;24.10;63.00;;;;;;5052169;28;20051;-80
2021/09/12 09:32:13;;;;;;;22.05;16.60;;;24.20;63.40;;;;;;5052913;28;20031;-78
2021/09/12 09:34:41;;;;;;;23.38;15.85;;;24.30;63.20;;;;;;5052800;28;20045;-79
2021/09/12 09:37:15;;;;;;;21.20;16.60;;;24.20;62.40;;;;;;5053096;28;20032;-79
2021/09/12 09:39:46;;;;;;;25.77;16.88;;;24.00;63.30;;;;;;5051515;28;20116;-81
2021/09/12 09:42:34;;;;;;;18.67;16.38;;;23.90;64.00;;;;;;5052745;28;20025;-77
2021/09/12 09:45:01;;;;;;;18.90;15.75;;;23.70;64.00;;;;;;5053062;28;20017;-80
2021/09/12 09:47:27;;;;;;;20.90;16.90;;;23.60;64.40;;;;;;5052221;28;20040;-80
2021/09/12 09:50:13;;;;;;;19.15;16.02;;;23.60;64.90;;;;;;5052876;28;20466;-80
2021/09/12 09:52:46;;;;;;;18.95;16.38;;;23.80;64.10;;;;;;5046594;28;20040;-81
2021/09/12 09:55:15;;;;;;;20.63;17.13;;;23.80;63.90;;;;;;5052811;28;20158;-82
2021/09/12 09:57:46;;;;;;;26.42;16.85;;;24.20;63.10;;;;;;5051176;28;20474;-81
2021/09/12 10:00:13;;;;;;;17.77;15.18;;;24.40;62.70;;;;;;5052432;28;20017;-82
2021/09/12 10:02:39;;;;;;;19.35;15.40;;;24.60;61.30;;;;;;5067650;28;20390;-80
2021/09/12 10:05:07;;;;;;;17.57;15.43;;;24.30;62.10;;;;;;5052670;28;20021;-82
2021/09/12 10:07:36;;;;;;;20.67;16.25;;;24.20;62.00;;;;;;5052733;28;20078;-82
2021/09/12 10:10:04;;;;;;;18.83;15.52;;;23.90;62.50;;;;;;5045848;28;20048;-81
2021/09/12 10:12:30;;;;;;;17.42;15.55;;;23.70;63.60;;;;;;5052185;28;20025;-80
2021/09/12 10:15:10;;;;;;;20.43;15.40;;;23.60;63.80;;;;;;5051775;28;20032;-84
2021/09/12 10:17:40;;;;;;;19.00;14.63;;;23.60;63.10;;;;;;5056238;28;20348;-80
2021/09/12 10:20:07;;;;;;;16.25;13.27;;;23.60;63.50;;;;;;5057460;28;20112;-80
2021/09/12 10:22:49;;;;;;;22.90;15.25;;;23.40;62.90;;;;;;5063395;28;20016;-80
2021/09/12 10:25:15;;;;;;;19.58;15.05;;;23.30;63.80;;;;;;5058385;28;20019;-84
2021/09/12 10:27:46;;;;;;;17.97;14.27;;;23.10;64.50;;;;;;5057517;28;20033;-82
2021/09/12 10:30:21;;;;;;;19.95;14.07;;;23.00;64.40;;;;;;5050212;28;20021;-82
2021/09/12 10:32:51;;;;;;;19.77;14.10;;;22.80;64.80;;;;;;5051454;28;20482;-81
2021/09/12 10:35:26;;;;;;;17.30;14.38;;;22.60;64.60;;;;;;5053518;28;20025;-82
2021/09/12 10:38:13;;;;;;;23.17;16.10;;;22.40;65.50;;;;;;5054685;28;20033;-84
2021/09/12 10:40:49;;;;;;;16.75;13.93;;;22.30;66.00;;;;;;5035962;28;20067;-83
2021/09/12 10:43:27;;;;;;;16.45;14.48;;;22.20;66.40;;;;;;5054169;28;20017;-81
2021/09/12 10:45:59;;;;;;;21.60;15.75;;;22.30;67.40;;;;;;5063964;28;20067;-84
2021/09/12 10:48:25;;;;;;;18.77;14.52;;;22.30;66.50;;;;;;5057681;28;20068;-82
2021/09/12 10:50:51;;;;;;;22.33;15.32;;;22.40;66.90;;;;;;5060355;28;20051;-81
2021/09/12 10:53:18;;;;;;;22.17;14.73;;;22.40;66.20;;;;;;5055559;28;20032;-85
2021/09/12 10:56:05;;;;;;;19.40;14.95;;;22.40;66.10;;;;;;5033544;28;20024;-83
2021/09/12 10:58:32;;;;;;;21.38;15.55;;;22.30;66.30;;;;;;5058162;28;20031;-81
2021/09/12 11:01:00;;;;;;;16.50;14.75;;;22.10;66.90;;;;;;5053870;28;20049;-80
2021/09/12 11:03:27;;;;;;;20.85;14.57;;;22.00;67.40;;;;;;5051877;28;20033;-81
2021/09/12 11:05:53;;;;;;;18.20;14.15;;;22.00;67.90;;;;;;5051833;28;20032;-82
2021/09/12 11:08:18;;;;;;;18.95;14.00;;;22.10;68.10;;;;;;5055012;28;20033;-82
2021/09/12 11:10:50;;;;;;;17.27;14.30;;;22.20;68.00;;;;;;5036026;28;20097;-82
2021/09/12 11:13:23;;;;;;;17.85;13.75;;;22.40;68.00;;;;;;5035896;28;20025;-81
2021/09/12 11:16:03;;;;;;;16.95;13.32;;;22.40;67.20;;;;;;5052192;28;20021;-80
2021/09/12 11:18:51;;;;;;;16.65;14.00;;;22.40;66.50;;;;;;5062452;28;20048;-80
2021/09/12 11:21:35;;;;;;;18.77;14.48;;;22.30;66.50;;;;;;5067430;28;20048;-79
2021/09/12 11:24:09;;;;;;;23.52;16.65;;;22.20;66.70;;;;;;5049470;28;20025;-79
2021/09/12 11:26:44;;;;;;;17.83;13.73;;;22.10;67.40;;;;;;5052027;28;20040;-79
2021/09/12 11:29:13;;;;;;;18.23;12.85;;;22.10;67.30;;;;;;5052207;28;20021;-80
2021/09/12 11:31:41;;;;;;;19.00;13.43;;;22.00;66.40;;;;;;5040696;28;20037;-80
2021/09/12 11:34:08;;;;;;;18.10;13.02;;;22.00;66.40;;;;;;5064830;28;20044;-79
2021/09/12 11:36:51;;;;;;;14.32;12.88;;;21.90;66.40;;;;;;5067909;28;20374;-80
2021/09/12 11:39:28;;;;;;;17.77;14.02;;;21.80;67.20;;;;;;5062544;28;20031;-79
2021/09/12 11:41:57;;;;;;;20.15;16.15;;;21.80;67.90;;;;;;5066437;28;20017;-79
2021/09/12 11:44:37;;;;;;;20.60;13.95;;;21.70;69.00;;;;;;5058776;28;20025;-79
2021/09/12 11:47:07;;;;;;;20.63;13.35;;;21.60;68.90;;;;;;5055332;28;20457;-81
2021/09/12 11:49:33;;;;;;;14.00;12.50;;;21.50;69.00;;;;;;5051323;28;20052;-82
2021/09/12 11:51:59;;;;;;;16.52;13.05;;;21.30;69.30;;;;;;5061821;28;20017;-81
2021/09/12 11:54:27;;;;;;;19.25;13.88;;;21.20;70.30;;;;;;5058151;28;20024;-79
2021/09/12 11:57:02;;;;;;;21.00;14.50;;;21.10;70.50;;;;;;5071943;28;20059;-80
2021/09/12 11:59:34;;;;;;;24.45;20.33;;;21.10;71.20;;;;;;5054415;28;20024;-79
2021/09/12 12:02:02;;;;;;;21.95;16.35;;;21.20;72.00;;;;;;5064829;28;20027;-82
2021/09/12 12:04:29;;;;;;;;;;;21.40;72.10;;;;;;5068788;28;20053;-80
2021/09/12 12:06:57;;;;;;;21.08;14.65;;;21.50;71.00;;;;;;5071891;28;19913;-79
2021/09/12 12:09:29;;;;;;;20.52;14.60;;;21.50;70.80;;;;;;5066920;28;20029;-81
2021/09/12 12:12:08;;;;;;;24.02;16.02;;;21.50;70.80;;;;;;5068556;28;20060;-82
2021/09/12 12:14:47;;;;;;;23.77;17.10;;;21.40;71.30;;;;;;5060889;28;20024;-80
2021/09/12 12:17:18;;;;;;;19.05;15.57;;;21.20;72.50;;;;;;5065085;28;20013;-81
2021/09/12 12:19:45;;;;;;;22.40;16.00;;;21.10;72.50;;;;;;5043530;28;20025;-78
2021/09/12 12:22:11;;;;;;;17.55;15.15;;;21.00;73.60;;;;;;5063656;28;20343;-79
2021/09/12 12:24:43;;;;;;;20.88;15.00;;;21.10;72.90;;;;;;5045627;28;20029;-83
2021/09/12 12:27:11;;;;;;;26.25;17.08;;;21.10;73.60;;;;;;5042163;28;20036;-79
2021/09/12 12:29:42;;;;;;;18.95;14.40;;;21.10;73.80;;;;;;5054372;28;20017;-79
2021/09/12 12:32:10;;;;;;;18.65;15.38;;;21.20;73.80;;;;;;5054317;28;20057;-79